sensor_id;sensor_type;location;lat;lon;timestamp;P1;durP1;ratioP1;P2;durP2;ratioP2
6973;SDS011;3527;52.376;8.990;2023-04-29T00:01:02;57.33;;;31.47;;
6973;SDS011;3527;52.376;8.990;2023-04-29T00:03:29;55.53;;;31.50;;
6973;SDS011;3527;52.376;8.990;2023-04-29T00:05:58;56.43;;;30.73;;
6973;SDS011;3527;52.376;8.990;2023-04-29T00:08:26;58.03;;;29.97;;
6973;SDS011;3527;52.376;8.990;2023-04-29T00:10:53;53.50;;;29.27;;
6973;SDS011;3527;52.376;8.990;2023-04-29T00:13:20;53.47;;;30.50;;
6973;SDS011;3527;52.376;8.990;2023-04-29T00:15:47;52.23;;;29.90;;
6973;SDS011;3527;52.376;8.990;2023-04-29T00:18:14;57.80;;;29.80;;
6973;SDS011;3527;52.376;8.990;2023-04-29T00:20:41;52.23;;;30.37;;
6973;SDS011;3527;52.376;8.990;2023-04-29T00:23:09;56.93;;;32.00;;
6973;SDS011;3527;52.376;8.990;2023-04-29T00:25:36;56.73;;;30.87;;
6973;SDS011;3527;52.376;8.990;2023-04-29T00:28:04;57.40;;;30.67;;
6973;SDS011;3527;52.376;8.990;2023-04-29T00:30:31;56.30;;;30.03;;
6973;SDS011;3527;52.376;8.990;2023-04-29T00:32:59;54.93;;;31.17;;
6973;SDS011;3527;52.376;8.990;2023-04-29T00:35:26;58.53;;;31.23;;
6973;SDS011;3527;52.376;8.990;2023-04-29T00:37:53;50.37;;;29.90;;
6973;SDS011;3527;52.376;8.990;2023-04-29T00:40:20;53.30;;;30.77;;
6973;SDS011;3527;52.376;8.990;2023-04-29T00:42:47;54.00;;;29.93;;
6973;SDS011;3527;52.376;8.990;2023-04-29T00:45:13;54.77;;;30.47;;
6973;SDS011;3527;52.376;8.990;2023-04-29T00:47:40;62.33;;;31.03;;
6973;SDS011;3527;52.376;8.990;2023-04-29T00:50:07;55.87;;;29.23;;
6973;SDS011;3527;52.376;8.990;2023-04-29T00:52:34;52.73;;;29.53;;
6973;SDS011;3527;52.376;8.990;2023-04-29T00:55:04;53.30;;;29.43;;
6973;SDS011;3527;52.376;8.990;2023-04-29T00:57:32;50.63;;;27.50;;
6973;SDS011;3527;52.376;8.990;2023-04-29T01:00:00;54.37;;;29.43;;
6973;SDS011;3527;52.376;8.990;2023-04-29T01:02:26;49.27;;;27.30;;
6973;SDS011;3527;52.376;8.990;2023-04-29T01:04:55;48.03;;;28.47;;
6973;SDS011;3527;52.376;8.990;2023-04-29T01:09:54;49.07;;;27.93;;
6973;SDS011;3527;52.376;8.990;2023-04-29T01:12:32;55.73;;;29.57;;
6973;SDS011;3527;52.376;8.990;2023-04-29T01:15:03;50.37;;;28.37;;
6973;SDS011;3527;52.376;8.990;2023-04-29T01:17:43;55.93;;;28.63;;
6973;SDS011;3527;52.376;8.990;2023-04-29T01:20:21;48.97;;;26.37;;
6973;SDS011;3527;52.376;8.990;2023-04-29T01:22:49;51.77;;;28.70;;
6973;SDS011;3527;52.376;8.990;2023-04-29T01:25:16;50.03;;;27.40;;
6973;SDS011;3527;52.376;8.990;2023-04-29T01:27:51;44.90;;;25.77;;
6973;SDS011;3527;52.376;8.990;2023-04-29T01:45:05;42.60;;;24.17;;
6973;SDS011;3527;52.376;8.990;2023-04-29T01:47:34;46.43;;;26.17;;
6973;SDS011;3527;52.376;8.990;2023-04-29T01:50:03;44.63;;;26.30;;
6973;SDS011;3527;52.376;8.990;2023-04-29T01:52:30;47.27;;;27.03;;
6973;SDS011;3527;52.376;8.990;2023-04-29T01:54:56;44.20;;;26.20;;
6973;SDS011;3527;52.376;8.990;2023-04-29T01:57:23;42.23;;;26.73;;
6973;SDS011;3527;52.376;8.990;2023-04-29T01:59:50;44.23;;;27.27;;
6973;SDS011;3527;52.376;8.990;2023-04-29T02:02:18;44.30;;;27.43;;
6973;SDS011;3527;52.376;8.990;2023-04-29T02:04:47;45.70;;;28.60;;
6973;SDS011;3527;52.376;8.990;2023-04-29T02:07:15;51.67;;;28.73;;
6973;SDS011;3527;52.376;8.990;2023-04-29T02:09:42;49.00;;;30.33;;
6973;SDS011;3527;52.376;8.990;2023-04-29T02:12:09;51.40;;;31.50;;
6973;SDS011;3527;52.376;8.990;2023-04-29T02:14:36;51.23;;;31.13;;
6973;SDS011;3527;52.376;8.990;2023-04-29T02:17:03;53.77;;;32.27;;
6973;SDS011;3527;52.376;8.990;2023-04-29T02:19:30;52.47;;;33.07;;
6973;SDS011;3527;52.376;8.990;2023-04-29T02:21:56;54.50;;;32.93;;
6973;SDS011;3527;52.376;8.990;2023-04-29T02:24:23;56.90;;;34.30;;
6973;SDS011;3527;52.376;8.990;2023-04-29T02:26:50;54.57;;;32.63;;
6973;SDS011;3527;52.376;8.990;2023-04-29T02:29:17;60.77;;;35.40;;
6973;SDS011;3527;52.376;8.990;2023-04-29T02:31:44;61.10;;;35.30;;
6973;SDS011;3527;52.376;8.990;2023-04-29T02:34:11;59.43;;;34.60;;
6973;SDS011;3527;52.376;8.990;2023-04-29T02:36:37;58.93;;;34.77;;
6973;SDS011;3527;52.376;8.990;2023-04-29T02:39:04;58.70;;;34.30;;
6973;SDS011;3527;52.376;8.990;2023-04-29T02:41:31;60.90;;;37.50;;
6973;SDS011;3527;52.376;8.990;2023-04-29T02:43:58;54.90;;;34.03;;
6973;SDS011;3527;52.376;8.990;2023-04-29T02:46:25;63.40;;;37.30;;
6973;SDS011;3527;52.376;8.990;2023-04-29T02:48:52;58.43;;;35.60;;
6973;SDS011;3527;52.376;8.990;2023-04-29T02:51:19;66.67;;;38.20;;
6973;SDS011;3527;52.376;8.990;2023-04-29T02:53:46;63.13;;;38.67;;
6973;SDS011;3527;52.376;8.990;2023-04-29T02:56:13;69.30;;;38.00;;
6973;SDS011;3527;52.376;8.990;2023-04-29T02:58:39;65.70;;;38.27;;
6973;SDS011;3527;52.376;8.990;2023-04-29T03:01:07;73.17;;;37.50;;
6973;SDS011;3527;52.376;8.990;2023-04-29T03:03:34;77.43;;;39.23;;
6973;SDS011;3527;52.376;8.990;2023-04-29T03:06:01;76.47;;;39.20;;
6973;SDS011;3527;52.376;8.990;2023-04-29T03:08:29;83.70;;;41.20;;
6973;SDS011;3527;52.376;8.990;2023-04-29T03:10:55;87.53;;;42.23;;
6973;SDS011;3527;52.376;8.990;2023-04-29T03:13:22;83.17;;;40.50;;
6973;SDS011;3527;52.376;8.990;2023-04-29T03:15:49;92.00;;;44.20;;
6973;SDS011;3527;52.376;8.990;2023-04-29T03:18:16;96.73;;;45.83;;
6973;SDS011;3527;52.376;8.990;2023-04-29T03:20:43;103.20;;;46.13;;
6973;SDS011;3527;52.376;8.990;2023-04-29T03:23:09;92.17;;;44.97;;
6973;SDS011;3527;52.376;8.990;2023-04-29T03:25:36;84.27;;;42.83;;
6973;SDS011;3527;52.376;8.990;2023-04-29T03:28:03;81.37;;;42.27;;
6973;SDS011;3527;52.376;8.990;2023-04-29T03:30:30;83.30;;;42.70;;
6973;SDS011;3527;52.376;8.990;2023-04-29T03:32:57;86.93;;;45.33;;
6973;SDS011;3527;52.376;8.990;2023-04-29T03:35:24;79.00;;;41.47;;
6973;SDS011;3527;52.376;8.990;2023-04-29T03:37:50;84.10;;;42.70;;
6973;SDS011;3527;52.376;8.990;2023-04-29T03:40:18;89.93;;;44.13;;
6973;SDS011;3527;52.376;8.990;2023-04-29T03:42:45;100.77;;;43.17;;
6973;SDS011;3527;52.376;8.990;2023-04-29T03:45:12;93.77;;;45.30;;
6973;SDS011;3527;52.376;8.990;2023-04-29T03:47:39;96.40;;;46.90;;
6973;SDS011;3527;52.376;8.990;2023-04-29T03:50:07;109.50;;;48.93;;
6973;SDS011;3527;52.376;8.990;2023-04-29T03:52:34;114.80;;;51.37;;
6973;SDS011;3527;52.376;8.990;2023-04-29T03:55:04;113.40;;;52.20;;
6973;SDS011;3527;52.376;8.990;2023-04-29T03:57:31;122.03;;;53.37;;
6973;SDS011;3527;52.376;8.990;2023-04-29T03:59:58;120.23;;;53.93;;
6973;SDS011;3527;52.376;8.990;2023-04-29T04:02:25;124.60;;;55.13;;
6973;SDS011;3527;52.376;8.990;2023-04-29T04:04:52;127.57;;;54.40;;
6973;SDS011;3527;52.376;8.990;2023-04-29T04:07:20;132.73;;;55.10;;
6973;SDS011;3527;52.376;8.990;2023-04-29T04:09:47;128.40;;;56.03;;
6973;SDS011;3527;52.376;8.990;2023-04-29T04:12:14;134.73;;;57.47;;
6973;SDS011;3527;52.376;8.990;2023-04-29T04:15:01;126.50;;;55.17;;
6973;SDS011;3527;52.376;8.990;2023-04-29T04:17:45;113.33;;;50.90;;
6973;SDS011;3527;52.376;8.990;2023-04-29T04:20:32;126.83;;;57.10;;
6973;SDS011;3527;52.376;8.990;2023-04-29T04:23:22;117.67;;;53.93;;
6973;SDS011;3527;52.376;8.990;2023-04-29T04:25:53;123.40;;;53.33;;
6973;SDS011;3527;52.376;8.990;2023-04-29T04:28:40;117.80;;;53.50;;
6973;SDS011;3527;52.376;8.990;2023-04-29T04:31:17;117.40;;;53.40;;
6973;SDS011;3527;52.376;8.990;2023-04-29T04:33:58;119.67;;;52.07;;
6973;SDS011;3527;52.376;8.990;2023-04-29T04:36:45;111.30;;;50.97;;
6973;SDS011;3527;52.376;8.990;2023-04-29T04:39:32;113.97;;;52.47;;
6973;SDS011;3527;52.376;8.990;2023-04-29T04:42:00;112.37;;;51.43;;
6973;SDS011;3527;52.376;8.990;2023-04-29T04:44:48;120.60;;;53.83;;
6973;SDS011;3527;52.376;8.990;2023-04-29T04:47:35;112.53;;;50.77;;
6973;SDS011;3527;52.376;8.990;2023-04-29T04:50:02;104.50;;;49.07;;
6973;SDS011;3527;52.376;8.990;2023-04-29T04:52:30;102.60;;;50.57;;
6973;SDS011;3527;52.376;8.990;2023-04-29T04:54:57;102.27;;;47.20;;
6973;SDS011;3527;52.376;8.990;2023-04-29T04:57:24;97.40;;;47.80;;
6973;SDS011;3527;52.376;8.990;2023-04-29T04:59:51;97.00;;;48.57;;
6973;SDS011;3527;52.376;8.990;2023-04-29T05:02:18;96.00;;;48.50;;
6973;SDS011;3527;52.376;8.990;2023-04-29T05:04:46;101.57;;;48.17;;
6973;SDS011;3527;52.376;8.990;2023-04-29T05:07:13;94.10;;;47.03;;
6973;SDS011;3527;52.376;8.990;2023-04-29T05:09:42;97.40;;;48.53;;
6973;SDS011;3527;52.376;8.990;2023-04-29T05:12:10;101.80;;;47.43;;
6973;SDS011;3527;52.376;8.990;2023-04-29T05:14:39;91.73;;;48.00;;
6973;SDS011;3527;52.376;8.990;2023-04-29T05:17:24;94.07;;;47.90;;
6973;SDS011;3527;52.376;8.990;2023-04-29T05:19:51;87.47;;;47.13;;
6973;SDS011;3527;52.376;8.990;2023-04-29T05:22:20;90.70;;;48.67;;
6973;SDS011;3527;52.376;8.990;2023-04-29T05:24:49;86.93;;;46.57;;
6973;SDS011;3527;52.376;8.990;2023-04-29T05:27:17;84.07;;;46.23;;
6973;SDS011;3527;52.376;8.990;2023-04-29T05:29:44;77.90;;;45.33;;
6973;SDS011;3527;52.376;8.990;2023-04-29T05:32:11;78.53;;;45.00;;
6973;SDS011;3527;52.376;8.990;2023-04-29T05:34:39;73.17;;;43.63;;
6973;SDS011;3527;52.376;8.990;2023-04-29T05:37:06;74.53;;;44.33;;
6973;SDS011;3527;52.376;8.990;2023-04-29T05:39:32;71.63;;;42.43;;
6973;SDS011;3527;52.376;8.990;2023-04-29T05:41:59;70.30;;;43.73;;
6973;SDS011;3527;52.376;8.990;2023-04-29T05:44:27;80.63;;;45.53;;
6973;SDS011;3527;52.376;8.990;2023-04-29T05:46:54;76.63;;;42.63;;
6973;SDS011;3527;52.376;8.990;2023-04-29T05:49:24;77.93;;;45.27;;
6973;SDS011;3527;52.376;8.990;2023-04-29T05:51:51;77.13;;;44.50;;
6973;SDS011;3527;52.376;8.990;2023-04-29T05:54:18;79.43;;;46.20;;
6973;SDS011;3527;52.376;8.990;2023-04-29T05:56:44;77.17;;;45.73;;
6973;SDS011;3527;52.376;8.990;2023-04-29T05:59:12;71.97;;;43.77;;
6973;SDS011;3527;52.376;8.990;2023-04-29T06:01:38;74.20;;;43.70;;
6973;SDS011;3527;52.376;8.990;2023-04-29T06:04:05;71.70;;;43.07;;
6973;SDS011;3527;52.376;8.990;2023-04-29T06:06:33;69.97;;;42.80;;
6973;SDS011;3527;52.376;8.990;2023-04-29T06:09:00;67.57;;;39.97;;
6973;SDS011;3527;52.376;8.990;2023-04-29T06:11:30;75.03;;;42.53;;
6973;SDS011;3527;52.376;8.990;2023-04-29T06:13:57;66.93;;;41.70;;
6973;SDS011;3527;52.376;8.990;2023-04-29T06:16:24;68.30;;;42.33;;
6973;SDS011;3527;52.376;8.990;2023-04-29T06:18:50;66.83;;;40.23;;
6973;SDS011;3527;52.376;8.990;2023-04-29T06:21:17;68.37;;;41.20;;
6973;SDS011;3527;52.376;8.990;2023-04-29T06:23:44;63.30;;;38.93;;
6973;SDS011;3527;52.376;8.990;2023-04-29T06:26:11;58.60;;;39.60;;
6973;SDS011;3527;52.376;8.990;2023-04-29T06:28:38;56.40;;;37.67;;
6973;SDS011;3527;52.376;8.990;2023-04-29T06:31:05;55.00;;;34.97;;
6973;SDS011;3527;52.376;8.990;2023-04-29T06:33:32;49.30;;;35.13;;
6973;SDS011;3527;52.376;8.990;2023-04-29T06:35:59;50.03;;;34.87;;
6973;SDS011;3527;52.376;8.990;2023-04-29T06:38:26;48.23;;;34.17;;
6973;SDS011;3527;52.376;8.990;2023-04-29T06:40:53;50.70;;;33.77;;
6973;SDS011;3527;52.376;8.990;2023-04-29T06:43:20;50.87;;;34.60;;
6973;SDS011;3527;52.376;8.990;2023-04-29T06:45:47;50.47;;;35.20;;
6973;SDS011;3527;52.376;8.990;2023-04-29T06:48:13;50.23;;;34.80;;
6973;SDS011;3527;52.376;8.990;2023-04-29T06:50:47;54.40;;;35.80;;
6973;SDS011;3527;52.376;8.990;2023-04-29T06:53:21;54.87;;;34.57;;
6973;SDS011;3527;52.376;8.990;2023-04-29T06:55:49;44.47;;;30.77;;
6973;SDS011;3527;52.376;8.990;2023-04-29T06:58:17;44.57;;;30.53;;
6973;SDS011;3527;52.376;8.990;2023-04-29T07:00:44;43.13;;;31.13;;
6973;SDS011;3527;52.376;8.990;2023-04-29T07:03:12;39.63;;;28.63;;
6973;SDS011;3527;52.376;8.990;2023-04-29T07:05:40;43.80;;;29.63;;
6973;SDS011;3527;52.376;8.990;2023-04-29T07:08:08;39.90;;;28.63;;
6973;SDS011;3527;52.376;8.990;2023-04-29T07:10:35;38.00;;;26.20;;
6973;SDS011;3527;52.376;8.990;2023-04-29T07:13:02;34.13;;;24.40;;
6973;SDS011;3527;52.376;8.990;2023-04-29T07:15:32;29.77;;;21.63;;
6973;SDS011;3527;52.376;8.990;2023-04-29T07:17:59;32.73;;;23.17;;
6973;SDS011;3527;52.376;8.990;2023-04-29T07:20:27;31.77;;;24.00;;
6973;SDS011;3527;52.376;8.990;2023-04-29T07:22:53;32.70;;;23.37;;
6973;SDS011;3527;52.376;8.990;2023-04-29T07:25:20;28.93;;;21.87;;
6973;SDS011;3527;52.376;8.990;2023-04-29T07:27:48;30.00;;;23.07;;
6973;SDS011;3527;52.376;8.990;2023-04-29T07:30:15;30.37;;;23.00;;
6973;SDS011;3527;52.376;8.990;2023-04-29T07:32:42;31.23;;;23.10;;
6973;SDS011;3527;52.376;8.990;2023-04-29T07:35:09;31.87;;;23.23;;
6973;SDS011;3527;52.376;8.990;2023-04-29T07:37:36;31.73;;;23.07;;
6973;SDS011;3527;52.376;8.990;2023-04-29T07:40:03;31.40;;;22.60;;
6973;SDS011;3527;52.376;8.990;2023-04-29T07:42:30;31.63;;;22.07;;
6973;SDS011;3527;52.376;8.990;2023-04-29T07:44:57;28.33;;;22.07;;
6973;SDS011;3527;52.376;8.990;2023-04-29T07:47:23;28.00;;;21.73;;
6973;SDS011;3527;52.376;8.990;2023-04-29T07:49:50;27.57;;;21.33;;
6973;SDS011;3527;52.376;8.990;2023-04-29T07:52:18;28.33;;;20.70;;
6973;SDS011;3527;52.376;8.990;2023-04-29T07:54:45;25.47;;;20.40;;
6973;SDS011;3527;52.376;8.990;2023-04-29T07:57:11;26.10;;;20.03;;
6973;SDS011;3527;52.376;8.990;2023-04-29T07:59:38;28.83;;;21.27;;
6973;SDS011;3527;52.376;8.990;2023-04-29T08:02:05;27.03;;;20.73;;
6973;SDS011;3527;52.376;8.990;2023-04-29T08:04:32;23.60;;;18.80;;
6973;SDS011;3527;52.376;8.990;2023-04-29T08:06:59;25.13;;;19.47;;
6973;SDS011;3527;52.376;8.990;2023-04-29T08:09:29;27.83;;;19.47;;
6973;SDS011;3527;52.376;8.990;2023-04-29T08:11:56;26.60;;;19.97;;
6973;SDS011;3527;52.376;8.990;2023-04-29T08:14:23;25.80;;;19.87;;
6973;SDS011;3527;52.376;8.990;2023-04-29T08:16:50;25.97;;;20.13;;
6973;SDS011;3527;52.376;8.990;2023-04-29T08:19:17;25.60;;;20.53;;
6973;SDS011;3527;52.376;8.990;2023-04-29T08:21:43;27.30;;;21.40;;
6973;SDS011;3527;52.376;8.990;2023-04-29T08:24:10;27.27;;;21.20;;
6973;SDS011;3527;52.376;8.990;2023-04-29T08:26:38;28.70;;;21.60;;
6973;SDS011;3527;52.376;8.990;2023-04-29T08:29:06;26.97;;;20.93;;
6973;SDS011;3527;52.376;8.990;2023-04-29T08:31:33;26.23;;;20.77;;
6973;SDS011;3527;52.376;8.990;2023-04-29T08:34:00;25.70;;;20.90;;
6973;SDS011;3527;52.376;8.990;2023-04-29T08:36:27;25.93;;;20.80;;
6973;SDS011;3527;52.376;8.990;2023-04-29T08:38:56;28.23;;;21.63;;
6973;SDS011;3527;52.376;8.990;2023-04-29T08:41:23;26.50;;;20.97;;
6973;SDS011;3527;52.376;8.990;2023-04-29T08:43:50;23.00;;;18.30;;
6973;SDS011;3527;52.376;8.990;2023-04-29T08:46:17;21.97;;;18.13;;
6973;SDS011;3527;52.376;8.990;2023-04-29T08:48:46;21.37;;;16.67;;
6973;SDS011;3527;52.376;8.990;2023-04-29T08:51:14;20.03;;;16.40;;
6973;SDS011;3527;52.376;8.990;2023-04-29T08:53:41;25.03;;;17.23;;
6973;SDS011;3527;52.376;8.990;2023-04-29T08:56:09;23.57;;;18.27;;
6973;SDS011;3527;52.376;8.990;2023-04-29T08:58:42;19.50;;;16.33;;
6973;SDS011;3527;52.376;8.990;2023-04-29T09:01:10;20.00;;;16.37;;
6973;SDS011;3527;52.376;8.990;2023-04-29T09:03:43;22.67;;;16.77;;
6973;SDS011;3527;52.376;8.990;2023-04-29T09:06:16;25.00;;;17.87;;
6973;SDS011;3527;52.376;8.990;2023-04-29T09:08:43;22.73;;;17.87;;
6973;SDS011;3527;52.376;8.990;2023-04-29T09:11:10;20.87;;;17.17;;
6973;SDS011;3527;52.376;8.990;2023-04-29T09:13:38;20.77;;;16.70;;
6973;SDS011;3527;52.376;8.990;2023-04-29T09:16:11;22.27;;;17.87;;
6973;SDS011;3527;52.376;8.990;2023-04-29T09:21:13;21.67;;;17.37;;
6973;SDS011;3527;52.376;8.990;2023-04-29T09:23:45;20.67;;;15.93;;
6973;SDS011;3527;52.376;8.990;2023-04-29T09:26:13;21.37;;;15.53;;
6973;SDS011;3527;52.376;8.990;2023-04-29T09:28:40;20.40;;;16.03;;
6973;SDS011;3527;52.376;8.990;2023-04-29T09:31:10;19.93;;;16.03;;
6973;SDS011;3527;52.376;8.990;2023-04-29T09:36:38;20.17;;;16.47;;
6973;SDS011;3527;52.376;8.990;2023-04-29T09:39:13;20.47;;;16.27;;
6973;SDS011;3527;52.376;8.990;2023-04-29T09:41:55;20.47;;;16.50;;
6973;SDS011;3527;52.376;8.990;2023-04-29T09:44:26;20.10;;;16.07;;
6973;SDS011;3527;52.376;8.990;2023-04-29T09:47:00;18.87;;;16.30;;
6973;SDS011;3527;52.376;8.990;2023-04-29T09:49:32;21.63;;;16.40;;
6973;SDS011;3527;52.376;8.990;2023-04-29T09:52:07;21.83;;;15.93;;
6973;SDS011;3527;52.376;8.990;2023-04-29T09:54:34;19.53;;;15.40;;
6973;SDS011;3527;52.376;8.990;2023-04-29T09:57:02;19.63;;;16.00;;
6973;SDS011;3527;52.376;8.990;2023-04-29T10:00:07;18.83;;;15.20;;
6973;SDS011;3527;52.376;8.990;2023-04-29T10:02:40;20.50;;;14.40;;
6973;SDS011;3527;52.376;8.990;2023-04-29T10:05:09;19.53;;;13.83;;
6973;SDS011;3527;52.376;8.990;2023-04-29T10:07:38;18.70;;;13.47;;
6973;SDS011;3527;52.376;8.990;2023-04-29T10:10:05;15.60;;;12.73;;
6973;SDS011;3527;52.376;8.990;2023-04-29T10:12:34;16.93;;;12.20;;
6973;SDS011;3527;52.376;8.990;2023-04-29T10:17:35;15.43;;;11.20;;
6973;SDS011;3527;52.376;8.990;2023-04-29T10:20:20;15.67;;;11.40;;
6973;SDS011;3527;52.376;8.990;2023-04-29T10:22:50;15.10;;;12.23;;
6973;SDS011;3527;52.376;8.990;2023-04-29T10:25:18;13.83;;;10.80;;
6973;SDS011;3527;52.376;8.990;2023-04-29T10:27:47;15.17;;;10.63;;
6973;SDS011;3527;52.376;8.990;2023-04-29T10:30:16;13.50;;;9.67;;
6973;SDS011;3527;52.376;8.990;2023-04-29T10:32:44;11.97;;;8.73;;
6973;SDS011;3527;52.376;8.990;2023-04-29T10:35:18;13.03;;;9.77;;
6973;SDS011;3527;52.376;8.990;2023-04-29T10:37:48;10.93;;;8.90;;
6973;SDS011;3527;52.376;8.990;2023-04-29T10:40:16;15.63;;;9.07;;
6973;SDS011;3527;52.376;8.990;2023-04-29T10:42:48;11.63;;;9.13;;
6973;SDS011;3527;52.376;8.990;2023-04-29T10:45:19;13.07;;;9.50;;
6973;SDS011;3527;52.376;8.990;2023-04-29T10:53:07;12.10;;;9.70;;
6973;SDS011;3527;52.376;8.990;2023-04-29T10:55:34;12.50;;;9.27;;
6973;SDS011;3527;52.376;8.990;2023-04-29T10:58:05;16.20;;;9.87;;
6973;SDS011;3527;52.376;8.990;2023-04-29T11:01:06;13.43;;;10.17;;
6973;SDS011;3527;52.376;8.990;2023-04-29T11:09:08;13.07;;;9.00;;
6973;SDS011;3527;52.376;8.990;2023-04-29T11:14:15;12.17;;;8.90;;
6973;SDS011;3527;52.376;8.990;2023-04-29T11:16:50;12.90;;;10.03;;
6973;SDS011;3527;52.376;8.990;2023-04-29T11:19:19;13.57;;;9.90;;
6973;SDS011;3527;52.376;8.990;2023-04-29T11:21:46;15.50;;;10.13;;
6973;SDS011;3527;52.376;8.990;2023-04-29T11:24:13;13.83;;;9.90;;
6973;SDS011;3527;52.376;8.990;2023-04-29T11:26:41;13.37;;;9.77;;
6973;SDS011;3527;52.376;8.990;2023-04-29T11:29:09;16.60;;;10.47;;
6973;SDS011;3527;52.376;8.990;2023-04-29T11:31:36;14.40;;;10.20;;
6973;SDS011;3527;52.376;8.990;2023-04-29T11:34:05;13.43;;;10.77;;
6973;SDS011;3527;52.376;8.990;2023-04-29T11:36:33;14.50;;;9.70;;
6973;SDS011;3527;52.376;8.990;2023-04-29T11:39:01;13.00;;;9.37;;
6973;SDS011;3527;52.376;8.990;2023-04-29T11:41:29;14.33;;;9.50;;
6973;SDS011;3527;52.376;8.990;2023-04-29T11:44:00;12.47;;;10.23;;
6973;SDS011;3527;52.376;8.990;2023-04-29T11:46:32;17.30;;;10.10;;
6973;SDS011;3527;52.376;8.990;2023-04-29T11:49:00;11.90;;;9.47;;
6973;SDS011;3527;52.376;8.990;2023-04-29T11:51:27;14.17;;;8.87;;
6973;SDS011;3527;52.376;8.990;2023-04-29T11:53:54;13.90;;;9.10;;
6973;SDS011;3527;52.376;8.990;2023-04-29T11:56:23;12.93;;;9.33;;
6973;SDS011;3527;52.376;8.990;2023-04-29T11:58:54;9.73;;;8.67;;
6973;SDS011;3527;52.376;8.990;2023-04-29T12:01:22;12.27;;;9.60;;
6973;SDS011;3527;52.376;8.990;2023-04-29T12:03:55;12.90;;;9.00;;
6973;SDS011;3527;52.376;8.990;2023-04-29T12:06:26;12.10;;;8.03;;
6973;SDS011;3527;52.376;8.990;2023-04-29T12:08:54;12.17;;;8.40;;
6973;SDS011;3527;52.376;8.990;2023-04-29T12:11:25;16.13;;;8.30;;
6973;SDS011;3527;52.376;8.990;2023-04-29T12:13:52;8.60;;;7.20;;
6973;SDS011;3527;52.376;8.990;2023-04-29T12:16:20;10.40;;;7.47;;
6973;SDS011;3527;52.376;8.990;2023-04-29T12:18:49;12.67;;;7.67;;
6973;SDS011;3527;52.376;8.990;2023-04-29T12:21:18;9.90;;;7.90;;
6973;SDS011;3527;52.376;8.990;2023-04-29T12:23:45;9.30;;;7.67;;
6973;SDS011;3527;52.376;8.990;2023-04-29T12:26:12;9.17;;;7.07;;
6973;SDS011;3527;52.376;8.990;2023-04-29T12:28:39;11.53;;;7.20;;
6973;SDS011;3527;52.376;8.990;2023-04-29T12:31:09;12.47;;;7.57;;
6973;SDS011;3527;52.376;8.990;2023-04-29T12:33:36;10.00;;;6.90;;
6973;SDS011;3527;52.376;8.990;2023-04-29T12:36:03;7.00;;;6.30;;
6973;SDS011;3527;52.376;8.990;2023-04-29T12:38:41;9.13;;;6.60;;
6973;SDS011;3527;52.376;8.990;2023-04-29T12:41:08;9.27;;;6.83;;
6973;SDS011;3527;52.376;8.990;2023-04-29T12:43:35;8.67;;;6.50;;
6973;SDS011;3527;52.376;8.990;2023-04-29T12:46:03;9.63;;;7.17;;
6973;SDS011;3527;52.376;8.990;2023-04-29T12:48:35;9.83;;;7.17;;
6973;SDS011;3527;52.376;8.990;2023-04-29T12:51:04;8.50;;;6.37;;
6973;SDS011;3527;52.376;8.990;2023-04-29T12:53:31;9.93;;;6.87;;
6973;SDS011;3527;52.376;8.990;2023-04-29T12:55:58;9.70;;;7.23;;
6973;SDS011;3527;52.376;8.990;2023-04-29T12:58:27;10.50;;;7.40;;
6973;SDS011;3527;52.376;8.990;2023-04-29T13:00:55;10.43;;;6.80;;
6973;SDS011;3527;52.376;8.990;2023-04-29T13:03:22;13.43;;;7.27;;
6973;SDS011;3527;52.376;8.990;2023-04-29T13:05:50;9.10;;;6.50;;
6973;SDS011;3527;52.376;8.990;2023-04-29T13:08:19;8.73;;;6.70;;
6973;SDS011;3527;52.376;8.990;2023-04-29T13:10:46;10.13;;;6.73;;
6973;SDS011;3527;52.376;8.990;2023-04-29T13:13:13;8.60;;;6.30;;
6973;SDS011;3527;52.376;8.990;2023-04-29T13:15:40;9.00;;;6.23;;
6973;SDS011;3527;52.376;8.990;2023-04-29T13:18:06;8.47;;;5.93;;
6973;SDS011;3527;52.376;8.990;2023-04-29T13:20:34;8.77;;;5.63;;
6973;SDS011;3527;52.376;8.990;2023-04-29T13:23:07;7.87;;;6.20;;
6973;SDS011;3527;52.376;8.990;2023-04-29T13:25:34;7.17;;;5.90;;
6973;SDS011;3527;52.376;8.990;2023-04-29T13:28:01;7.30;;;6.17;;
6973;SDS011;3527;52.376;8.990;2023-04-29T13:30:28;7.73;;;5.07;;
6973;SDS011;3527;52.376;8.990;2023-04-29T13:32:55;5.70;;;4.63;;
6973;SDS011;3527;52.376;8.990;2023-04-29T13:35:29;7.10;;;5.13;;
6973;SDS011;3527;52.376;8.990;2023-04-29T13:37:56;9.77;;;5.47;;
6973;SDS011;3527;52.376;8.990;2023-04-29T13:40:23;10.63;;;5.93;;
6973;SDS011;3527;52.376;8.990;2023-04-29T13:42:53;6.80;;;4.87;;
6973;SDS011;3527;52.376;8.990;2023-04-29T13:45:31;9.20;;;6.30;;
6973;SDS011;3527;52.376;8.990;2023-04-29T13:48:05;8.77;;;5.67;;
6973;SDS011;3527;52.376;8.990;2023-04-29T13:50:51;8.60;;;5.80;;
6973;SDS011;3527;52.376;8.990;2023-04-29T13:53:20;7.17;;;4.77;;
6973;SDS011;3527;52.376;8.990;2023-04-29T13:56:07;7.77;;;5.50;;
6973;SDS011;3527;52.376;8.990;2023-04-29T13:58:37;7.60;;;5.50;;
6973;SDS011;3527;52.376;8.990;2023-04-29T14:01:24;8.87;;;4.90;;
6973;SDS011;3527;52.376;8.990;2023-04-29T14:04:10;7.40;;;4.73;;
6973;SDS011;3527;52.376;8.990;2023-04-29T14:06:37;5.77;;;4.30;;
6973;SDS011;3527;52.376;8.990;2023-04-29T14:09:05;7.67;;;5.30;;
6973;SDS011;3527;52.376;8.990;2023-04-29T14:11:32;7.23;;;4.70;;
6973;SDS011;3527;52.376;8.990;2023-04-29T14:14:02;9.33;;;4.57;;
6973;SDS011;3527;52.376;8.990;2023-04-29T14:16:29;7.03;;;4.47;;
6973;SDS011;3527;52.376;8.990;2023-04-29T14:18:56;6.97;;;4.30;;
6973;SDS011;3527;52.376;8.990;2023-04-29T14:21:22;6.20;;;4.40;;
6973;SDS011;3527;52.376;8.990;2023-04-29T14:23:49;6.33;;;4.53;;
6973;SDS011;3527;52.376;8.990;2023-04-29T14:26:16;5.50;;;4.23;;
6973;SDS011;3527;52.376;8.990;2023-04-29T14:28:54;5.27;;;4.13;;
6973;SDS011;3527;52.376;8.990;2023-04-29T14:31:25;4.67;;;4.20;;
6973;SDS011;3527;52.376;8.990;2023-04-29T14:33:57;6.53;;;4.47;;
6973;SDS011;3527;52.376;8.990;2023-04-29T14:36:24;5.80;;;4.83;;
6973;SDS011;3527;52.376;8.990;2023-04-29T14:38:54;7.87;;;5.07;;
6973;SDS011;3527;52.376;8.990;2023-04-29T14:41:24;9.53;;;5.40;;
6973;SDS011;3527;52.376;8.990;2023-04-29T14:43:51;10.83;;;6.73;;
6973;SDS011;3527;52.376;8.990;2023-04-29T14:46:18;9.40;;;6.20;;
6973;SDS011;3527;52.376;8.990;2023-04-29T14:48:45;8.43;;;6.50;;
6973;SDS011;3527;52.376;8.990;2023-04-29T14:51:12;9.43;;;6.47;;
6973;SDS011;3527;52.376;8.990;2023-04-29T14:53:39;10.87;;;6.87;;
6973;SDS011;3527;52.376;8.990;2023-04-29T14:56:06;9.40;;;6.50;;
6973;SDS011;3527;52.376;8.990;2023-04-29T14:58:33;7.90;;;5.60;;
6973;SDS011;3527;52.376;8.990;2023-04-29T15:01:00;9.33;;;6.17;;
6973;SDS011;3527;52.376;8.990;2023-04-29T15:03:26;7.40;;;6.03;;
6973;SDS011;3527;52.376;8.990;2023-04-29T15:05:53;9.43;;;5.43;;
6973;SDS011;3527;52.376;8.990;2023-04-29T15:08:20;7.27;;;5.43;;
6973;SDS011;3527;52.376;8.990;2023-04-29T15:10:47;6.40;;;4.80;;
6973;SDS011;3527;52.376;8.990;2023-04-29T15:13:15;5.83;;;4.90;;
6973;SDS011;3527;52.376;8.990;2023-04-29T15:15:42;5.60;;;4.30;;
6973;SDS011;3527;52.376;8.990;2023-04-29T15:18:09;7.40;;;4.40;;
6973;SDS011;3527;52.376;8.990;2023-04-29T15:20:36;8.47;;;4.73;;
6973;SDS011;3527;52.376;8.990;2023-04-29T15:23:03;7.17;;;4.83;;
6973;SDS011;3527;52.376;8.990;2023-04-29T15:25:31;6.53;;;4.30;;
6973;SDS011;3527;52.376;8.990;2023-04-29T15:28:01;7.10;;;4.37;;
6973;SDS011;3527;52.376;8.990;2023-04-29T15:30:29;5.93;;;4.27;;
6973;SDS011;3527;52.376;8.990;2023-04-29T15:32:56;5.87;;;4.20;;
6973;SDS011;3527;52.376;8.990;2023-04-29T15:35:23;5.73;;;4.60;;
6973;SDS011;3527;52.376;8.990;2023-04-29T15:37:50;7.13;;;4.80;;
6973;SDS011;3527;52.376;8.990;2023-04-29T15:40:16;7.90;;;4.10;;
6973;SDS011;3527;52.376;8.990;2023-04-29T15:42:43;6.83;;;4.80;;